Time;durP1;ratioP1;P1;durP2;ratioP2;P2;SDS_P1;SDS_P2;PMS_P1;PMS_P2;Temp;Humidity;BMP_temperature;BMP_pressure;BME280_temperature;BME280_humidity;BME280_pressure;Samples;Min_cycle;Max_cycle;Signal;HPM_P1;HPM_P2
2022/04/05 00:00:04;;;;;;;6.10;5.30;;;;;;;1.36;98.31;97860.59;103554;1300;24325;-25
2022/04/05 00:02:30;;;;;;;5.80;4.90;;;;;;;1.81;96.70;97854.65;103468;1300;24311;-26
2022/04/05 00:04:56;;;;;;;6.60;5.40;;;;;;;1.68;95.60;97852.08;103560;1300;24248;-31
2022/04/05 00:07:22;;;;;;;4.50;4.10;;;;;;;1.69;96.17;97838.53;103551;1300;24301;-25
2022/04/05 00:09:47;;;;;;;6.20;5.40;;;;;;;1.65;95.71;97841.11;103543;1300;24375;-29
2022/04/05 00:12:13;;;;;;;4.70;4.00;;;;;;;1.58;96.47;97839.08;103510;1300;24248;-29
2022/04/05 00:14:39;;;;;;;6.80;6.20;;;;;;;1.71;95.95;97849.80;103553;1300;23752;-29
2022/04/05 00:17:05;;;;;;;9.40;7.00;;;;;;;1.88;95.32;97848.92;103441;1302;24051;-29
2022/04/05 00:19:31;;;;;;;8.40;6.50;;;;;;;1.72;94.73;97850.94;103470;1302;23899;-31
2022/04/05 00:21:57;;;;;;;6.20;5.40;;;;;;;1.81;95.22;97838.52;103527;1300;24248;-31
2022/04/05 00:24:22;;;;;;;4.30;3.80;;;;;;;1.91;94.23;97834.80;103336;1302;24195;-31
2022/04/05 00:26:48;;;;;;;8.10;5.20;;;;;;;1.58;95.17;97841.11;103545;1300;22664;-29
2022/04/05 00:29:14;;;;;;;6.40;5.10;;;;;;;1.70;95.60;97837.23;103584;1300;24213;-25
2022/04/05 00:31:40;;;;;;;4.10;2.60;;;;;;;1.90;94.80;97831.85;103552;1301;24212;-29
2022/04/05 00:34:05;;;;;;;5.50;3.40;;;;;;;1.78;94.76;97828.86;103557;1300;24420;-25
2022/04/05 00:36:31;;;;;;;9.00;4.70;;;;;;;2.09;93.39;97808.84;103397;1301;24302;-25
2022/04/05 00:38:57;;;;;;;5.20;4.70;;;;;;;1.82;94.39;97811.70;103527;1300;22626;-29
2022/04/05 00:41:22;;;;;;;6.40;4.90;;;;;;;2.06;93.06;97812.30;103523;1300;22755;-29
2022/04/05 00:43:48;;;;;;;5.20;4.30;;;;;;;1.67;94.62;97810.77;103383;1300;24486;-29
2022/04/05 00:46:14;;;;;;;6.10;4.50;;;;;;;1.56;96.04;97816.52;103465;1300;24248;-29
2022/04/05 00:48:47;;;;;;;6.90;5.00;;;;;;;1.51;96.65;97814.70;103513;1300;24229;-26
2022/04/05 00:51:14;;;;;;;5.40;4.80;;;;;;;1.55;96.80;97813.18;103594;1300;23964;-24
2022/04/05 00:53:41;;;;;;;7.40;5.30;;;;;;;1.62;96.55;97804.66;103524;1300;24264;-31
2022/04/05 00:56:08;;;;;;;5.90;4.40;;;;;;;2.08;94.58;97798.65;103533;1300;23610;-29
2022/04/05 00:58:34;;;;;;;4.40;3.60;;;;;;;1.75;94.46;97805.59;103533;1300;24245;-30
2022/04/05 01:00:59;;;;;;;5.60;5.00;;;;;;;1.95;94.64;97806.15;103519;1300;22506;-25
2022/04/05 01:03:26;;;;;;;4.50;4.00;;;;;;;1.98;93.63;97803.90;103506;1300;24237;-29
2022/04/05 01:05:52;;;;;;;7.50;6.40;;;;;;;1.92;94.81;97794.97;103580;1300;23810;-29
2022/04/05 01:08:19;;;;;;;8.40;6.10;;;;;;;2.21;92.06;97802.81;103482;1300;24247;-25
2022/04/05 01:10:46;;;;;;;6.50;5.60;;;;;;;1.92;93.39;97800.28;103587;1300;24259;-30
2022/04/05 01:13:11;;;;;;;4.90;4.40;;;;;;;1.73;94.54;97796.74;103495;1300;22496;-29
2022/04/05 01:15:37;;;;;;;5.80;4.90;;;;;;;1.58;96.18;97803.38;103449;1300;24259;-29
2022/04/05 01:18:03;;;;;;;4.90;3.70;;;;;;;1.89;95.46;97797.34;103527;1300;22954;-25
2022/04/05 01:20:29;;;;;;;4.00;3.70;;;;;;;1.81;94.69;97796.88;103451;1302;23653;-25
2022/04/05 01:22:55;;;;;;;4.80;3.50;;;;;;;1.92;94.55;97797.11;103530;1300;24225;-26
2022/04/05 01:25:21;;;;;;;5.80;4.10;;;;;;;1.81;95.32;97803.22;103532;1300;24253;-29
2022/04/05 01:27:47;;;;;;;5.40;3.70;;;;;;;1.90;95.16;97802.75;103586;1300;22725;-28
2022/04/05 01:30:13;;;;;;;5.90;5.40;;;;;;;2.01;94.81;97803.92;103585;1300;23887;-29
2022/04/05 01:32:39;;;;;;;5.50;5.00;;;;;;;1.95;94.67;97801.17;103515;1300;24008;-27
2022/04/05 01:35:06;;;;;;;6.30;4.90;;;;;;;2.00;94.86;97800.92;103576;1300;24248;-30
2022/04/05 01:37:33;;;;;;;6.50;5.80;;;;;;;2.00;95.18;97796.95;103563;1300;24305;-28
2022/04/05 01:42:33;;;;;;;6.90;5.20;;;;;;;2.00;94.67;97794.50;103532;1300;22923;-24
2022/04/05 01:44:59;;;;;;;3.60;3.30;;;;;;;2.23;93.85;97792.58;103546;1300;22609;-25
2022/04/05 01:47:25;;;;;;;10.00;5.90;;;;;;;2.31;92.70;97792.23;103555;1302;24281;-25
2022/04/05 01:49:51;;;;;;;5.10;4.50;;;;;;;2.26;92.97;97786.27;103617;1300;24180;-29
2022/04/05 01:52:17;;;;;;;6.70;5.70;;;;;;;2.59;90.92;97786.95;103506;1300;23589;-25
2022/04/05 01:54:43;;;;;;;5.70;3.60;;;;;;;2.47;91.66;97783.75;103575;1300;23610;-29
2022/04/05 01:57:09;;;;;;;5.40;4.90;;;;;;;2.70;89.67;97781.39;103571;1300;22495;-26
2022/04/05 01:59:36;;;;;;;4.60;4.10;;;;;;;2.44;91.01;97782.67;103563;1300;22496;-25
2022/04/05 02:02:05;;;;;;;5.20;4.10;;;;;;;2.24;92.51;97776.70;103419;1300;24240;-24
2022/04/05 02:04:31;;;;;;;5.70;4.50;;;;;;;2.44;91.73;97777.61;103608;1300;22509;-26
2022/04/05 02:06:57;;;;;;;4.50;4.10;;;;;;;2.54;91.15;97781.07;103397;1300;22889;-31
2022/04/05 02:09:22;;;;;;;7.60;5.90;;;;;;;2.61;90.76;97771.10;103628;1300;23607;-25
2022/04/05 02:11:48;;;;;;;6.00;4.00;;;;;;;2.48;91.25;97767.55;103562;1300;24301;-31
2022/04/05 02:14:15;;;;;;;5.50;5.10;;;;;;;2.45;91.35;97766.94;103510;1300;24237;-31
2022/04/05 02:16:40;;;;;;;5.90;5.30;;;;;;;2.88;89.52;97763.58;103578;1300;24211;-28
2022/04/05 02:19:06;;;;;;;3.20;2.90;;;;;;;2.84;88.67;97759.09;103625;1301;22757;-24
2022/04/05 02:21:32;;;;;;;6.70;4.60;;;;;;;2.63;89.56;97766.13;103562;1300;24330;-23
2022/04/05 02:23:58;;;;;;;9.30;4.80;;;;;;;2.70;89.57;97758.52;103442;1300;22492;-28
2022/04/05 02:26:24;;;;;;;6.00;4.70;;;;;;;2.74;88.85;97756.08;103567;1300;24222;-30
2022/04/05 02:28:50;;;;;;;5.70;5.10;;;;;;;2.57;90.06;97750.81;103550;1300;22961;-31
2022/04/05 02:31:15;;;;;;;4.10;3.60;;;;;;;2.48;90.48;97758.58;103412;1302;23602;-28
2022/04/05 02:33:41;;;;;;;3.50;3.10;;;;;;;2.61;90.03;97755.73;103602;1300;23590;-29
2022/04/05 02:36:07;;;;;;;8.20;5.20;;;;;;;2.46;90.40;97755.27;103487;1300;24321;-29
2022/04/05 02:38:33;;;;;;;4.50;4.00;;;;;;;2.53;90.30;97754.98;103506;1300;24292;-27
2022/04/05 02:40:59;;;;;;;4.80;4.40;;;;;;;2.72;89.25;97752.42;103538;1302;22606;-28
2022/04/05 02:43:25;;;;;;;3.90;3.00;;;;;;;2.92;87.96;97746.06;103507;1302;24774;-29
2022/04/05 02:45:55;;;;;;;3.90;3.00;;;;;;;2.81;87.74;97756.84;103606;1300;24243;-31
2022/04/05 02:48:22;;;;;;;5.20;4.50;;;;;;;2.80;88.17;97756.05;103564;1300;24369;-29
2022/04/05 02:50:48;;;;;;;2.70;2.50;;;;;;;2.95;87.42;97751.27;103586;1300;23528;-30
2022/04/05 02:53:14;;;;;;;5.30;4.70;;;;;;;3.03;86.36;97746.41;103586;1300;22798;-28
2022/04/05 02:55:41;;;;;;;3.20;2.90;;;;;;;3.13;85.14;97744.31;103528;1300;25001;-24
2022/04/05 02:58:09;;;;;;;3.60;3.30;;;;;;;2.82;86.79;97753.05;103513;1300;24365;-24
2022/04/05 03:00:35;;;;;;;4.10;3.60;;;;;;;3.35;84.70;97732.10;103557;1300;24205;-29
2022/04/05 03:03:01;;;;;;;4.40;3.70;;;;;;;2.93;86.21;97745.47;103559;1300;22610;-29
2022/04/05 03:05:27;;;;;;;3.40;2.40;;;;;;;2.95;86.56;97742.27;103537;1300;24670;-28
2022/04/05 03:07:53;;;;;;;4.40;3.10;;;;;;;3.17;85.69;97746.59;103534;1300;22502;-31
2022/04/05 03:10:18;;;;;;;3.20;2.90;;;;;;;3.00;85.91;97752.38;103560;1300;23646;-25
2022/04/05 03:12:44;;;;;;;4.60;4.20;;;;;;;3.14;86.42;97736.23;103558;1300;24250;-28
2022/04/05 03:15:10;;;;;;;3.60;2.90;;;;;;;3.00;86.71;97746.73;103493;1300;24245;-25
2022/04/05 03:17:41;;;;;;;4.50;2.20;;;;;;;3.28;86.01;97742.48;103583;1300;22975;-24
2022/04/05 03:20:08;;;;;;;4.20;3.40;;;;;;;2.95;87.26;97737.45;103577;1300;24301;-25
2022/04/05 03:22:33;;;;;;;4.90;3.90;;;;;;;2.96;87.70;97733.10;103517;1300;24213;-29
2022/04/05 03:24:59;;;;;;;2.90;2.40;;;;;;;3.16;87.18;97729.56;103558;1300;23613;-25
2022/04/05 03:27:25;;;;;;;3.30;2.70;;;;;;;3.00;87.16;97731.52;103520;1300;24658;-24
2022/04/05 03:29:51;;;;;;;3.40;2.80;;;;;;;2.89;88.66;97737.47;103530;1300;23848;-31
2022/04/05 03:32:16;;;;;;;3.60;3.20;;;;;;;2.90;88.38;97736.38;103528;1300;24255;-27
2022/04/05 03:34:42;;;;;;;3.40;3.00;;;;;;;2.99;87.93;97727.41;103578;1300;23565;-28
2022/04/05 03:37:08;;;;;;;3.40;2.80;;;;;;;3.12;87.75;97730.30;103508;1300;23537;-25
2022/04/05 03:39:34;;;;;;;3.90;2.70;;;;;;;3.09;87.50;97727.66;103628;1300;22506;-25
2022/04/05 03:41:59;;;;;;;3.80;2.80;;;;;;;3.08;86.86;97736.77;103554;1300;24230;-29
2022/04/05 03:44:25;;;;;;;2.10;1.90;;;;;;;3.18;86.98;97732.89;103546;1300;22513;-24
2022/04/05 03:46:52;;;;;;;5.90;2.70;;;;;;;3.18;86.26;97736.20;103511;1300;24961;-26
2022/04/05 03:49:18;;;;;;;3.90;3.30;;;;;;;3.09;86.73;97739.46;103580;1300;24238;-25
2022/04/05 03:51:44;;;;;;;2.30;2.00;;;;;;;3.04;87.22;97738.18;103591;1300;23788;-30
2022/04/05 03:54:10;;;;;;;4.40;3.40;;;;;;;3.32;85.92;97726.59;103570;1300;24365;-29
2022/04/05 03:56:35;;;;;;;5.80;3.80;;;;;;;3.17;85.96;97733.01;103556;1300;24213;-25
2022/04/05 03:59:03;;;;;;;5.50;4.00;;;;;;;3.08;86.51;97739.33;103553;1300;24213;-24
2022/04/05 04:01:29;;;;;;;4.70;3.40;;;;;;;3.28;85.69;97736.20;103512;1300;24278;-24
2022/04/05 04:03:54;;;;;;;2.60;2.40;;;;;;;3.37;84.31;97731.71;103496;1300;24264;-24
2022/04/05 04:06:20;;;;;;;3.80;3.50;;;;;;;3.60;83.17;97729.39;103548;1300;24323;-28
2022/04/05 04:08:46;;;;;;;3.80;3.50;;;;;;;3.34;84.32;97735.08;103554;1300;22514;-26
2022/04/05 04:11:11;;;;;;;2.50;2.00;;;;;;;3.42;84.18;97734.61;103537;1301;23936;-25
2022/04/05 04:13:37;;;;;;;3.40;2.60;;;;;;;3.19;84.75;97742.82;103210;1300;298931;-25
2022/04/05 04:16:04;;;;;;;3.40;3.00;;;;;;;3.19;85.11;97738.38;103556;1300;23603;-25
2022/04/05 04:18:30;;;;;;;3.40;2.90;;;;;;;3.17;85.53;97745.00;103599;1300;22703;-25
2022/04/05 04:20:56;;;;;;;5.40;3.40;;;;;;;3.51;84.82;97740.84;103424;1301;24215;-29
2022/04/05 04:23:22;;;;;;;4.10;2.80;;;;;;;3.24;85.17;97752.81;103405;1300;24354;-30
2022/04/05 04:25:48;;;;;;;2.80;2.30;;;;;;;3.27;85.64;97751.51;103520;1300;22984;-30
2022/04/05 04:28:13;;;;;;;3.70;3.20;;;;;;;3.15;86.40;97749.14;103510;1300;23789;-26
2022/04/05 04:30:39;;;;;;;5.50;3.60;;;;;;;3.17;86.95;97751.04;103541;1300;24265;-29
2022/04/05 04:33:06;;;;;;;4.00;3.70;;;;;;;3.05;87.65;97758.11;103535;1300;23554;-27
2022/04/05 04:35:31;;;;;;;3.50;3.10;;;;;;;2.93;88.32;97761.83;103542;1300;22511;-30
2022/04/05 04:37:58;;;;;;;4.90;3.90;;;;;;;3.00;89.17;97762.63;103583;1300;24346;-27
2022/04/05 04:40:24;;;;;;;2.90;2.70;;;;;;;3.24;88.02;97752.70;103529;1300;24291;-27
2022/04/05 04:42:50;;;;;;;3.50;3.20;;;;;;;2.99;88.84;97757.77;103604;1300;24216;-28
2022/04/05 04:45:16;;;;;;;4.50;4.10;;;;;;;2.85;89.79;97763.77;103527;1302;24240;-29
2022/04/05 04:47:42;;;;;;;4.50;4.00;;;;;;;3.20;88.70;97755.85;103634;1300;24273;-28
2022/04/05 04:50:08;;;;;;;5.40;4.20;;;;;;;3.01;89.33;97756.02;103587;1300;23763;-25
2022/04/05 04:52:34;;;;;;;3.30;2.90;;;;;;;2.94;90.12;97760.92;103592;1300;22630;-25
2022/04/05 04:55:00;;;;;;;4.10;3.50;;;;;;;2.86;90.74;97763.14;103555;1300;23603;-29
2022/04/05 04:57:26;;;;;;;4.00;3.10;;;;;;;3.07;90.24;97758.30;103550;1300;24213;-29
2022/04/05 04:59:53;;;;;;;3.70;3.40;;;;;;;3.07;89.89;97769.11;103523;1300;22679;-28
2022/04/05 05:02:22;;;;;;;2.80;2.60;;;;;;;2.82;91.18;97769.16;103505;1300;24300;-30
2022/04/05 05:04:49;;;;;;;4.00;3.60;;;;;;;2.78;92.13;97766.64;103565;1300;23738;-31
2022/04/05 05:07:15;;;;;;;5.30;3.50;;;;;;;2.82;92.30;97765.83;103589;1300;24261;-30
2022/04/05 05:09:41;;;;;;;3.90;3.50;;;;;;;2.90;92.15;97771.84;103600;1300;24256;-24
2022/04/05 05:12:10;;;;;;;5.30;3.20;;;;;;;2.93;92.04;97773.65;103587;1300;24207;-26
2022/04/05 05:14:36;;;;;;;3.20;2.90;;;;;;;3.11;91.31;97767.75;103634;1300;23835;-24
2022/04/05 05:17:03;;;;;;;5.30;4.90;;;;;;;3.01;91.55;97775.83;103599;1300;24266;-29
2022/04/05 05:19:28;;;;;;;4.50;2.80;;;;;;;2.85;91.98;97780.44;103578;1300;23844;-29
2022/04/05 05:21:54;;;;;;;1.70;1.40;;;;;;;2.90;92.48;97782.60;103482;1300;24355;-25
2022/04/05 05:24:20;;;;;;;4.40;3.80;;;;;;;2.99;92.36;97772.21;103474;1300;24273;-29
2022/04/05 05:26:45;;;;;;;16.80;3.80;;;;;;;3.03;92.37;97775.91;103522;1300;24260;-29
2022/04/05 05:29:12;;;;;;;13.70;4.20;;;;;;;3.14;91.91;97782.98;103470;1302;22498;-29
2022/04/05 05:31:39;;;;;;;4.70;3.40;;;;;;;3.05;92.04;97789.48;103503;1299;23605;-29
2022/04/05 05:34:04;;;;;;;3.30;3.00;;;;;;;3.12;92.53;97787.36;103574;1300;23945;-30
2022/04/05 05:36:30;;;;;;;3.10;2.80;;;;;;;3.21;91.68;97793.88;103546;1302;24298;-30
2022/04/05 05:38:56;;;;;;;5.60;2.30;;;;;;;3.10;92.41;97800.23;103522;1300;24257;-25
2022/04/05 05:41:21;;;;;;;2.10;1.80;;;;;;;3.11;92.73;97804.48;103593;1300;24276;-29
2022/04/05 05:43:47;;;;;;;3.40;3.10;;;;;;;3.19;92.55;97799.63;103512;1300;22498;-30
2022/04/05 05:46:13;;;;;;;2.90;2.50;;;;;;;3.31;92.22;97797.98;103601;1300;24206;-28
2022/04/05 05:48:39;;;;;;;2.90;2.30;;;;;;;3.19;92.37;97808.49;103473;1300;24247;-28
2022/04/05 05:51:06;;;;;;;3.50;3.30;;;;;;;3.04;93.02;97811.11;103530;1300;24226;-27
2022/04/05 05:53:32;;;;;;;2.80;2.50;;;;;;;3.19;93.47;97808.77;103555;1300;22738;-28
2022/04/05 05:55:58;;;;;;;3.10;2.60;;;;;;;3.21;93.11;97819.61;103504;1301;24216;-28
2022/04/05 05:58:24;;;;;;;5.00;3.40;;;;;;;3.11;94.37;97817.38;103553;1300;24350;-30
2022/04/05 06:00:51;;;;;;;3.00;2.20;;;;;;;2.99;94.94;97808.41;103617;1300;22902;-29
2022/04/05 06:03:17;;;;;;;2.70;2.40;;;;;;;2.98;94.43;97818.92;103566;1300;24240;-28
2022/04/05 06:05:43;;;;;;;3.80;2.80;;;;;;;3.38;93.24;97823.21;103529;1300;24217;-25
2022/04/05 06:08:09;;;;;;;5.00;3.90;;;;;;;3.08;94.59;97830.83;103555;1300;24357;-24
2022/04/05 06:10:36;;;;;;;2.90;2.40;;;;;;;3.18;94.70;97825.50;103648;1300;23097;-25
2022/04/05 06:13:01;;;;;;;8.70;4.30;;;;;;;3.26;94.87;97827.30;103515;1300;24291;-28
2022/04/05 06:15:28;;;;;;;2.80;2.40;;;;;;;3.18;94.43;97833.61;103590;1300;24290;-29
2022/04/05 06:17:55;;;;;;;4.80;3.70;;;;;;;3.19;95.62;97834.73;103498;1300;22814;-31
2022/04/05 06:20:21;;;;;;;2.70;2.10;;;;;;;3.26;95.36;97839.21;103556;1300;24240;-30
2022/04/05 06:22:48;;;;;;;2.00;1.50;;;;;;;3.30;95.20;97840.65;103551;1300;24245;-28
2022/04/05 06:25:16;;;;;;;4.20;3.60;;;;;;;3.45;95.10;97840.27;103602;1301;24350;-28
2022/04/05 06:27:42;;;;;;;5.10;3.40;;;;;;;3.34;94.93;97843.61;103621;1301;25005;-30
2022/04/05 06:30:08;;;;;;;4.40;4.00;;;;;;;3.48;94.50;97844.13;103563;1300;23987;-27
2022/04/05 06:32:35;;;;;;;2.70;2.40;;;;;;;3.44;95.02;97847.24;103620;1301;24251;-25
2022/04/05 06:35:01;;;;;;;3.10;2.50;;;;;;;3.52;94.62;97848.22;103623;1300;24349;-29
2022/04/05 06:37:27;;;;;;;1.70;1.50;;;;;;;3.48;95.41;97854.02;103579;1300;24201;-29
2022/04/05 06:39:53;;;;;;;2.70;2.50;;;;;;;3.74;94.55;97847.21;103665;1300;24251;-29
2022/04/05 06:42:19;;;;;;;2.10;1.70;;;;;;;3.61;93.33;97855.23;103488;1300;24367;-28
2022/04/05 06:44:45;;;;;;;1.90;1.30;;;;;;;3.50;95.14;97849.21;103563;1300;22610;-29
2022/04/05 06:47:11;;;;;;;2.30;2.20;;;;;;;3.56;94.65;97854.25;103583;1302;22501;-24
2022/04/05 06:49:38;;;;;;;3.60;3.30;;;;;;;3.66;94.80;97854.27;103562;1300;23569;-29
2022/04/05 06:52:04;;;;;;;1.50;0.90;;;;;;;3.58;95.49;97862.32;103564;1302;24216;-25
2022/04/05 06:54:30;;;;;;;2.60;1.70;;;;;;;3.54;95.92;97859.46;103590;1301;25227;-25
2022/04/05 06:56:55;;;;;;;1.50;1.20;;;;;;;3.93;93.92;97838.66;103408;1300;24403;-24
2022/04/05 06:59:21;;;;;;;9.40;3.60;;;;;;;3.62;93.98;97867.91;103395;1300;22497;-23
2022/04/05 07:01:49;;;;;;;3.60;2.00;;;;;;;3.91;94.42;97862.20;103642;1302;24408;-31
2022/04/05 07:04:14;;;;;;;2.70;1.70;;;;;;;3.58;95.25;97873.23;103538;1300;24240;-29
2022/04/05 07:06:40;;;;;;;1.50;1.40;;;;;;;3.84;95.71;97869.73;103515;1300;24361;-29
2022/04/05 07:09:07;;;;;;;2.00;1.70;;;;;;;3.88;94.49;97871.85;103562;1300;24250;-31
2022/04/05 07:11:33;;;;;;;1.60;1.50;;;;;;;3.78;94.28;97864.62;103565;1302;24213;-26
2022/04/05 07:13:58;;;;;;;1.50;1.40;;;;;;;3.91;93.32;97872.02;103609;1302;23647;-31
2022/04/05 07:16:24;;;;;;;1.60;1.10;;;;;;;4.00;93.53;97872.36;103531;1300;22740;-29
2022/04/05 07:18:50;;;;;;;2.90;2.60;;;;;;;3.88;93.79;97875.49;103463;1302;24290;-31
2022/04/05 07:21:16;;;;;;;1.80;1.50;;;;;;;4.14;92.52;97878.02;103534;1299;24249;-29
2022/04/05 07:23:44;;;;;;;2.40;1.80;;;;;;;3.85;93.54;97879.30;103577;1300;24215;-28
2022/04/05 07:26:10;;;;;;;3.60;1.40;;;;;;;3.69;94.83;97886.27;103574;1300;24251;-29
2022/04/05 07:28:36;;;;;;;1.20;0.90;;;;;;;3.91;93.72;97871.67;103588;1302;24301;-29
2022/04/05 07:31:03;;;;;;;1.60;1.20;;;;;;;4.05;93.48;97875.27;103555;1302;24404;-31
2022/04/05 07:33:29;;;;;;;1.50;1.20;;;;;;;3.72;95.38;97882.88;103599;1300;22734;-31
2022/04/05 07:35:55;;;;;;;1.40;1.20;;;;;;;3.91;95.37;97885.95;103555;1302;26180;-29
2022/04/05 07:38:21;;;;;;;1.10;0.80;;;;;;;4.11;94.54;97882.38;103538;1300;24220;-25
2022/04/05 07:40:48;;;;;;;3.10;2.90;;;;;;;4.29;93.03;97884.19;103508;1302;25003;-25
2022/04/05 07:43:15;;;;;;;0.70;0.50;;;;;;;4.30;92.39;97887.96;103414;1302;24241;-24
2022/04/05 07:45:41;;;;;;;2.20;1.10;;;;;;;4.17;93.16;97885.50;103277;1300;24292;-24
2022/04/05 07:48:08;;;;;;;15.70;8.90;;;;;;;4.33;92.81;97886.76;103578;1300;24370;-29
2022/04/05 07:50:33;;;;;;;7.70;4.60;;;;;;;4.36;91.94;97884.26;103602;1300;24211;-25
2022/04/05 07:52:59;;;;;;;2.30;1.20;;;;;;;4.50;91.70;97890.91;103537;1300;24215;-29
2022/04/05 07:55:25;;;;;;;1.90;1.70;;;;;;;4.50;91.90;97893.51;103550;1300;24459;-25
2022/04/05 07:57:51;;;;;;;10.20;4.30;;;;;;;5.02;89.17;97899.30;103569;1300;24217;-24
2022/04/05 08:00:17;;;;;;;2.60;1.50;;;;;;;4.74;90.61;97895.45;103532;1300;24252;-25
2022/04/05 08:02:44;;;;;;;3.70;2.80;;;;;;;4.61;91.37;97895.45;103496;1302;24304;-31
2022/04/05 08:05:10;;;;;;;5.40;1.80;;;;;;;4.75;91.68;97898.28;103525;1300;24240;-29
2022/04/05 08:07:35;;;;;;;3.10;1.50;;;;;;;4.79;92.01;97903.41;103586;1300;24220;-26
2022/04/05 08:10:01;;;;;;;2.70;1.30;;;;;;;4.92;90.84;97908.02;103453;1302;24375;-24
2022/04/05 08:12:35;;;;;;;2.00;1.20;;;;;;;4.75;91.94;97907.29;103445;1301;24044;-24
2022/04/05 08:15:01;;;;;;;3.70;2.70;;;;;;;5.01;91.28;97911.10;103496;1302;22698;-28
2022/04/05 08:17:26;;;;;;;2.30;1.80;;;;;;;5.38;88.66;97913.17;103491;1300;24215;-31
2022/04/05 08:19:52;;;;;;;0.90;0.80;;;;;;;5.38;87.36;97922.94;103444;1302;24249;-26
2022/04/05 08:22:18;;;;;;;2.10;1.20;;;;;;;5.39;88.63;97923.20;103584;1302;24321;-30
2022/04/05 08:24:44;;;;;;;2.20;1.80;;;;;;;4.96;89.24;97928.55;103525;1300;24214;-26
2022/04/05 08:27:09;;;;;;;2.90;1.50;;;;;;;4.98;89.47;97923.43;103473;1302;24272;-23
2022/04/05 08:29:40;;;;;;;10.60;2.30;;;;;;;4.91;92.11;97928.92;103571;1300;22634;-24
2022/04/05 08:32:06;;;;;;;2.70;1.00;;;;;;;5.00;91.69;97920.48;103564;1300;23635;-29
2022/04/05 08:34:33;;;;;;;9.30;1.30;;;;;;;5.28;91.02;97920.79;103537;1300;22495;-29
2022/04/05 08:36:59;;;;;;;2.60;1.70;;;;;;;5.48;88.67;97929.87;103537;1300;22743;-29
2022/04/05 08:39:28;;;;;;;2.80;1.20;;;;;;;5.61;88.71;97930.80;103489;1302;24393;-31
2022/04/05 08:41:55;;;;;;;9.50;4.10;;;;;;;5.57;89.82;97938.09;103445;1301;24247;-28
2022/04/05 08:44:21;;;;;;;6.70;4.90;;;;;;;5.78;88.82;97940.65;103553;1302;26238;-29
2022/04/05 08:46:47;;;;;;;2.20;1.20;;;;;;;5.51;89.00;97939.83;103494;1300;24196;-23
2022/04/05 08:49:13;;;;;;;2.10;1.40;;;;;;;5.08;90.93;97946.79;103524;1300;24356;-24
2022/04/05 08:51:39;;;;;;;1.00;0.90;;;;;;;5.25;90.39;97947.80;103556;1302;23836;-29
2022/04/05 08:54:04;;;;;;;2.10;1.50;;;;;;;5.42;89.37;97953.88;103543;1302;23601;-24
2022/04/05 08:56:30;;;;;;;1.90;1.70;;;;;;;5.47;88.24;97956.73;103471;1302;24478;-22
2022/04/05 08:58:56;;;;;;;2.20;1.50;;;;;;;5.59;87.81;97958.77;103529;1302;24382;-24
2022/04/05 09:01:23;;;;;;;10.10;2.60;;;;;;;5.25;90.31;97966.76;103582;1301;23140;-26
2022/04/05 09:03:50;;;;;;;2.50;1.20;;;;;;;5.42;89.43;97966.55;103317;1302;24310;-28
2022/04/05 09:06:23;;;;;;;2.00;1.40;;;;;;;5.47;88.38;97968.55;103552;1302;24238;-31
2022/04/05 09:08:49;;;;;;;3.10;2.70;;;;;;;5.09;90.43;97970.21;103512;1300;24290;-29
2022/04/05 09:11:14;;;;;;;1.40;1.10;;;;;;;4.78;92.19;97968.00;103498;1301;24248;-27
2022/04/05 09:13:40;;;;;;;1.00;0.90;;;;;;;4.78;92.97;97973.70;103562;1300;24218;-25
2022/04/05 09:16:08;;;;;;;3.70;3.10;;;;;;;4.60;93.87;97975.41;103581;1300;24300;-31
2022/04/05 09:18:35;;;;;;;6.20;2.00;;;;;;;4.86;92.50;97980.98;103537;1301;23787;-32
2022/04/05 09:21:02;;;;;;;1.70;0.90;;;;;;;4.71;93.14;97981.63;103565;1301;24324;-29
2022/04/05 09:23:31;;;;;;;1.70;1.10;;;;;;;4.76;93.58;97979.74;103585;1302;22692;-29
2022/04/05 09:25:58;;;;;;;2.90;2.10;;;;;;;4.62;94.48;97982.05;103612;1301;22798;-29
2022/04/05 09:28:27;;;;;;;3.10;1.80;;;;;;;5.01;93.06;97976.17;103585;1300;22609;-29
2022/04/05 09:30:56;;;;;;;1.30;0.80;;;;;;;4.73;94.11;97983.65;103509;1301;22775;-26
2022/04/05 09:33:22;;;;;;;2.10;1.60;;;;;;;4.81;95.03;97984.77;103561;1301;24196;-23
2022/04/05 09:35:50;;;;;;;1.50;1.20;;;;;;;4.88;94.49;97992.47;103539;1300;23841;-31
2022/04/05 09:38:17;;;;;;;5.80;1.90;;;;;;;4.83;94.89;97993.59;103647;1300;22502;-29
2022/04/05 09:40:43;;;;;;;6.00;3.40;;;;;;;4.73;95.12;97995.95;103716;1301;24257;-28
2022/04/05 09:43:12;;;;;;;2.10;1.80;;;;;;;4.71;95.40;97997.02;103749;1300;24205;-24
2022/04/05 09:45:44;;;;;;;4.50;3.30;;;;;;;4.59;96.00;98000.13;103585;1301;22599;-29
2022/04/05 09:48:10;;;;;;;3.70;1.00;;;;;;;5.08;93.02;97994.15;103700;1301;22533;-30
2022/04/05 09:50:43;;;;;;;1.80;1.60;;;;;;;4.98;92.96;97999.98;103693;1302;24245;-31
2022/04/05 09:53:09;;;;;;;4.10;1.50;;;;;;;4.86;92.93;98000.61;103861;1301;24302;-29
2022/04/05 09:55:34;;;;;;;6.60;3.30;;;;;;;5.16;92.16;97998.78;103903;1300;24371;-29
2022/04/05 09:58:10;;;;;;;5.30;4.10;;;;;;;4.87;92.84;98004.17;103693;1301;22500;-28
2022/04/05 10:00:36;;;;;;;1.90;1.30;;;;;;;5.26;92.16;98012.21;103792;1300;24240;-24
2022/04/05 10:03:08;;;;;;;8.60;4.80;;;;;;;5.32;90.85;98012.34;103637;1301;22511;-24
2022/04/05 10:05:36;;;;;;;6.20;3.30;;;;;;;5.15;91.53;98013.79;103745;1302;22570;-24
2022/04/05 10:08:03;;;;;;;3.00;2.80;;;;;;;5.37;90.84;98007.85;103783;1300;24308;-29
2022/04/05 10:10:28;;;;;;;3.40;3.00;;;;;;;5.62;91.43;98011.45;103689;1302;24265;-24
2022/04/05 10:12:55;;;;;;;4.70;3.20;;;;;;;5.72;91.38;98014.65;103775;1300;24359;-29
2022/04/05 10:15:21;;;;;;;2.20;2.00;;;;;;;5.58;91.80;98013.41;103816;1302;24317;-24
2022/04/05 10:17:49;;;;;;;2.80;1.80;;;;;;;5.41;90.65;98020.04;103742;1300;24222;-24
2022/04/05 10:20:16;;;;;;;3.00;1.70;;;;;;;5.17;91.94;98021.59;103904;1300;25345;-29
2022/04/05 10:22:42;;;;;;;2.90;2.20;;;;;;;5.30;92.07;98025.68;103762;1301;24267;-26
2022/04/05 10:25:08;;;;;;;3.90;2.80;;;;;;;5.11;91.77;98030.57;103715;1302;24186;-31
2022/04/05 10:27:34;;;;;;;2.20;1.60;;;;;;;5.37;93.64;98022.97;103819;1302;24253;-29
2022/04/05 10:30:04;;;;;;;1.90;1.80;;;;;;;5.42;92.91;98031.89;103759;1302;24348;-24
2022/04/05 10:32:36;;;;;;;2.70;1.80;;;;;;;5.75;91.14;98030.02;103639;1302;24240;-24
2022/04/05 10:35:04;;;;;;;2.20;2.00;;;;;;;5.80;89.42;98025.73;103556;1301;24259;-29
2022/04/05 10:37:33;;;;;;;2.10;2.00;;;;;;;6.26;87.37;98029.91;103596;1299;24301;-29
2022/04/05 10:39:58;;;;;;;7.40;1.70;;;;;;;6.30;86.56;98032.13;103542;1300;23975;-28
2022/04/05 10:42:25;;;;;;;2.40;1.70;;;;;;;6.21;86.81;98035.84;103545;1300;24288;-23
2022/04/05 10:44:53;;;;;;;2.70;2.20;;;;;;;5.84;87.78;98035.31;103536;1300;22504;-24
2022/04/05 10:47:19;;;;;;;2.10;1.50;;;;;;;5.87;87.52;98035.45;103637;1300;23607;-24
2022/04/05 10:49:47;;;;;;;3.00;2.50;;;;;;;5.64;89.23;98039.85;103447;1300;24202;-24
2022/04/05 10:52:15;;;;;;;1.20;1.10;;;;;;;5.78;89.92;98038.10;103548;1301;24267;-24
2022/04/05 10:54:42;;;;;;;1.40;1.20;;;;;;;6.22;86.26;98025.17;103548;1302;24519;-25
2022/04/05 10:57:15;;;;;;;2.00;1.60;;;;;;;5.47;86.96;98020.32;103564;1301;24202;-24
2022/04/05 10:59:46;;;;;;;2.20;1.00;;;;;;;5.23;90.70;98019.49;103546;1300;24190;-24
2022/04/05 11:02:18;;;;;;;2.50;1.90;;;;;;;5.31;89.69;98018.52;103550;1300;24336;-29
2022/04/05 11:04:44;;;;;;;2.20;1.80;;;;;;;5.24;90.03;98019.17;103560;1302;25091;-29
2022/04/05 11:07:11;;;;;;;1.50;0.50;;;;;;;5.66;88.15;98021.92;103512;1302;24350;-28
2022/04/05 11:09:42;;;;;;;1.80;0.90;;;;;;;5.60;86.09;98026.89;103660;1302;23586;-30
2022/04/05 11:12:11;;;;;;;1.40;1.10;;;;;;;5.91;85.35;98036.89;103547;1300;24229;-24
2022/04/05 11:14:40;;;;;;;1.60;0.90;;;;;;;5.63;86.65;98037.89;103530;1302;24253;-29
2022/04/05 11:17:06;;;;;;;1.20;0.70;;;;;;;5.60;88.10;98038.48;103560;1300;24254;-24
2022/04/05 11:19:34;;;;;;;1.20;0.90;;;;;;;6.31;84.44;98040.51;103611;1302;24300;-24
2022/04/05 11:22:04;;;;;;;15.40;0.70;;;;;;;6.36;82.78;98044.77;103468;1302;24301;-24
2022/04/05 11:24:37;;;;;;;0.80;0.40;;;;;;;6.13;81.98;98047.45;103541;1300;24253;-29
2022/04/05 11:27:09;;;;;;;0.70;0.50;;;;;;;6.36;80.83;98048.89;103565;1300;22839;-25
2022/04/05 11:29:35;;;;;;;3.60;0.50;;;;;;;6.57;79.92;98041.16;103496;1300;25951;-29
2022/04/05 11:32:06;;;;;;;0.90;0.60;;;;;;;6.31;79.74;98047.27;103501;1302;24336;-29